Time;durP1;ratioP1;P1;durP2;ratioP2;P2;SDS_P1;SDS_P2;PMS_P1;PMS_P2;Temp;Humidity;BMP_temperature;BMP_pressure;BME280_temperature;BME280_humidity;BME280_pressure;Samples;Min_cycle;Max_cycle;Signal;HPM_P1;HPM_P2
2023/03/05 00:01:10;;;;;;;18.02;9.30;;;;;;;;;;5009817;28;20053;-75
2023/03/05 00:03:35;;;;;;;20.70;8.80;;;;;;;;;;5021439;28;20042;-74
2023/03/05 00:06:01;;;;;;;18.15;8.43;;;;;;;;;;5026783;28;20041;-77
2023/03/05 00:08:28;;;;;;;16.88;8.13;;;;;;;;;;5014338;28;20557;-77
2023/03/05 00:11:02;;;;;;;13.55;8.00;;;;;;;;;;5015731;28;20120;-77
2023/03/05 00:13:27;;;;;;;;;;;;;;;;;;5015928;28;20048;-77
2023/03/05 00:15:53;;;;;;;14.63;8.20;;;;;;;;;;5016336;28;20312;-76
2023/03/05 00:18:20;;;;;;;20.42;9.13;;;;;;;;;;5008127;28;20436;-77
2023/03/05 00:20:46;;;;;;;14.15;8.10;;;;;;;;;;5015031;28;20034;-76
2023/03/05 00:23:12;;;;;;;16.75;8.65;;;;;;;;;;5014701;28;20038;-77
2023/03/05 00:25:38;;;;;;;17.60;8.10;;;;;;;;;;5014906;28;20068;-76
2023/03/05 00:28:04;;;;;;;12.45;6.32;;;;;;;;;;5016411;28;20042;-76
2023/03/05 00:30:30;;;;;;;13.98;6.03;;;;;;;;;;5009916;28;20054;-77
2023/03/05 00:32:56;;;;;;;9.30;5.05;;;;;;;;;;5016249;28;20104;-76
2023/03/05 00:35:21;;;;;;;14.25;6.32;;;;;;;;;;5011938;28;20038;-76
2023/03/05 00:37:47;;;;;;;15.88;6.40;;;;;;;;;;5016068;28;20026;-77
2023/03/05 00:40:12;;;;;;;10.60;5.78;;;;;;;;;;5012207;28;20057;-76
2023/03/05 00:42:38;;;;;;;10.80;6.63;;;;;;;;;;5014602;28;20128;-76
2023/03/05 00:45:05;;;;;;;12.60;5.88;;;;;;;;;;5010700;28;20462;-76
2023/03/05 00:47:31;;;;;;;12.93;5.85;;;;;;;;;;5015014;28;20042;-76
2023/03/05 00:49:56;;;;;;;9.95;6.22;;;;;;;;;;5015713;28;20096;-76
2023/03/05 00:52:21;;;;;;;11.07;5.10;;;;;;;;;;5008626;28;20398;-76
2023/03/05 00:54:47;;;;;;;13.65;6.30;;;;;;;;;;5013264;28;20466;-76
2023/03/05 00:57:12;;;;;;;15.15;6.18;;;;;;;;;;5012100;28;20474;-76
2023/03/05 00:59:38;;;;;;;11.85;6.18;;;;;;;;;;5008065;28;20033;-76
2023/03/05 01:02:03;;;;;;;11.82;5.78;;;;;;;;;;5010677;28;20490;-76
2023/03/05 01:04:28;;;;;;;12.98;5.57;;;;;;;;;;5012178;28;20049;-76
2023/03/05 01:06:54;;;;;;;10.82;6.10;;;;;;;;;;5015378;28;20030;-76
2023/03/05 01:09:20;;;;;;;14.30;5.60;;;;;;;;;;5001267;28;20489;-76
2023/03/05 01:11:46;;;;;;;11.13;4.50;;;;;;;;;;5003627;28;20046;-76
2023/03/05 01:14:11;;;;;;;12.95;4.70;;;;;;;;;;5013562;28;20033;-76
2023/03/05 01:16:37;;;;;;;7.25;4.53;;;;;;;;;;5006477;28;20474;-76
2023/03/05 01:19:02;;;;;;;6.95;3.80;;;;;;;;;;4997997;28;20394;-76
2023/03/05 01:21:28;;;;;;;5.55;3.20;;;;;;;;;;5006782;28;20038;-76
2023/03/05 01:23:53;;;;;;;6.32;2.85;;;;;;;;;;5002808;28;20041;-76
2023/03/05 01:26:19;;;;;;;4.93;3.05;;;;;;;;;;5014446;28;20084;-76
2023/03/05 01:28:44;;;;;;;9.75;3.10;;;;;;;;;;5015205;28;20036;-76
2023/03/05 01:31:10;;;;;;;6.53;2.95;;;;;;;;;;5014952;28;20474;-76
2023/03/05 01:33:37;;;;;;;6.00;3.05;;;;;;;;;;5014882;28;20041;-76
2023/03/05 01:36:06;;;;;;;8.65;3.55;;;;;;;;;;5029609;28;20037;-76
2023/03/05 01:38:31;;;;;;;6.78;2.67;;;;;;;;;;4989229;28;20394;-76
2023/03/05 01:40:57;;;;;;;6.45;2.63;;;;;;;;;;5014749;28;20034;-76
2023/03/05 01:43:28;;;;;;;6.85;2.70;;;;;;;;;;5006421;28;20121;-76
2023/03/05 01:46:12;;;;;;;6.15;2.65;;;;;;;;;;5008274;28;20070;-76
2023/03/05 01:48:41;;;;;;;3.92;2.35;;;;;;;;;;5015422;28;20030;-76
2023/03/05 01:51:07;;;;;;;6.22;2.40;;;;;;;;;;5013310;28;20072;-76
2023/03/05 01:53:32;;;;;;;5.53;2.50;;;;;;;;;;5013181;28;20073;-76
2023/03/05 01:55:58;;;;;;;5.90;2.33;;;;;;;;;;5011540;28;20077;-76
2023/03/05 01:58:24;;;;;;;5.75;2.72;;;;;;;;;;5010444;28;20030;-76
2023/03/05 02:00:51;;;;;;;5.93;2.17;;;;;;;;;;5003188;28;20081;-76
2023/03/05 02:03:17;;;;;;;9.13;3.10;;;;;;;;;;5011817;28;20056;-76
2023/03/05 02:05:43;;;;;;;4.53;2.40;;;;;;;;;;5008811;28;20029;-76
2023/03/05 02:08:17;;;;;;;9.75;2.83;;;;;;;;;;5014571;28;20125;-76
2023/03/05 02:10:51;;;;;;;5.65;2.50;;;;;;;;;;5009140;28;20179;-76
2023/03/05 02:13:25;;;;;;;3.25;2.05;;;;;;;;;;5002372;28;20042;-75
2023/03/05 02:15:51;;;;;;;;;;;;;;;;;;5013043;28;20095;-76
2023/03/05 02:18:18;;;;;;;3.13;1.90;;;;;;;;;;5014324;28;20282;-76
2023/03/05 02:20:59;;;;;;;5.43;2.30;;;;;;;;;;5029500;28;20026;-75
2023/03/05 02:23:28;;;;;;;7.72;2.33;;;;;;;;;;5007357;28;20038;-76
2023/03/05 02:25:54;;;;;;;5.00;2.33;;;;;;;;;;5012296;28;20026;-76
2023/03/05 02:28:27;;;;;;;5.75;2.17;;;;;;;;;;5014313;28;20569;-76
2023/03/05 02:30:53;;;;;;;3.92;2.10;;;;;;;;;;5012826;28;20545;-76
2023/03/05 02:33:19;;;;;;;4.85;1.90;;;;;;;;;;5010588;28;20049;-76
2023/03/05 02:35:45;;;;;;;5.60;2.28;;;;;;;;;;5012448;28;20038;-76
2023/03/05 02:38:12;;;;;;;4.70;2.20;;;;;;;;;;5004341;28;20038;-76
2023/03/05 02:40:37;;;;;;;3.88;2.20;;;;;;;;;;5003220;28;20041;-76
2023/03/05 02:43:03;;;;;;;3.53;1.80;;;;;;;;;;4999427;28;20034;-76
2023/03/05 02:45:28;;;;;;;4.50;1.77;;;;;;;;;;5007530;28;20485;-76
2023/03/05 02:47:54;;;;;;;2.97;1.70;;;;;;;;;;5013748;28;20034;-75
2023/03/05 02:50:19;;;;;;;6.57;2.08;;;;;;;;;;5006614;28;20465;-76
2023/03/05 02:52:45;;;;;;;4.53;1.98;;;;;;;;;;5013359;28;20045;-76
2023/03/05 02:55:10;;;;;;;7.15;2.10;;;;;;;;;;5011895;28;20042;-76
2023/03/05 02:57:36;;;;;;;5.68;1.90;;;;;;;;;;5003995;28;20061;-76
2023/03/05 03:00:02;;;;;;;4.80;1.77;;;;;;;;;;5009827;28;20116;-76
2023/03/05 03:02:28;;;;;;;3.78;1.65;;;;;;;;;;5010356;28;20477;-76
2023/03/05 03:04:53;;;;;;;4.32;1.75;;;;;;;;;;5005095;28;20030;-77
2023/03/05 03:07:19;;;;;;;6.75;1.92;;;;;;;;;;5012810;28;20117;-76
2023/03/05 03:09:44;;;;;;;6.85;1.95;;;;;;;;;;5010127;28;20038;-76
2023/03/05 03:12:10;;;;;;;6.18;2.10;;;;;;;;;;5013307;28;20133;-76
2023/03/05 03:14:38;;;;;;;3.90;1.80;;;;;;;;;;5012306;28;20040;-76
2023/03/05 03:17:15;;;;;;;3.15;1.80;;;;;;;;;;5012195;28;20034;-76
2023/03/05 03:19:42;;;;;;;4.63;1.70;;;;;;;;;;5007088;28;20033;-76
2023/03/05 03:22:08;;;;;;;8.85;1.85;;;;;;;;;;5007618;28;20045;-76
2023/03/05 03:24:34;;;;;;;10.75;2.42;;;;;;;;;;5016680;28;20035;-76
2023/03/05 03:27:00;;;;;;;3.92;1.85;;;;;;;;;;5006287;28;20092;-76
2023/03/05 03:29:26;;;;;;;6.47;2.05;;;;;;;;;;5013160;28;20057;-76
2023/03/05 03:31:51;;;;;;;6.03;2.05;;;;;;;;;;5007534;28;20084;-76
2023/03/05 03:34:17;;;;;;;6.47;2.13;;;;;;;;;;5011047;28;20477;-76
2023/03/05 03:36:43;;;;;;;4.57;1.60;;;;;;;;;;5011294;28;20038;-76
2023/03/05 03:39:09;;;;;;;3.72;1.60;;;;;;;;;;5027975;28;20026;-76
2023/03/05 03:41:36;;;;;;;3.97;1.73;;;;;;;;;;5012863;28;20053;-76
2023/03/05 03:44:03;;;;;;;4.03;2.10;;;;;;;;;;5028191;28;20092;-76
2023/03/05 03:46:29;;;;;;;4.55;2.00;;;;;;;;;;5008963;28;20032;-76
2023/03/05 03:48:54;;;;;;;3.85;1.77;;;;;;;;;;5001973;28;20385;-76
2023/03/05 03:51:20;;;;;;;3.83;1.85;;;;;;;;;;5010486;28;20076;-76
2023/03/05 03:53:45;;;;;;;4.05;1.80;;;;;;;;;;5002803;28;20100;-76
2023/03/05 03:56:11;;;;;;;4.22;1.98;;;;;;;;;;5012793;28;20402;-76
2023/03/05 03:58:36;;;;;;;5.03;1.83;;;;;;;;;;5013225;28;20060;-76
2023/03/05 04:01:01;;;;;;;3.83;1.77;;;;;;;;;;5010872;28;20057;-76
2023/03/05 04:03:27;;;;;;;3.88;1.70;;;;;;;;;;5012708;28;20080;-76
2023/03/05 04:05:52;;;;;;;7.07;1.90;;;;;;;;;;5012968;28;20455;-76
2023/03/05 04:08:18;;;;;;;4.18;2.20;;;;;;;;;;5012748;28;20394;-76
2023/03/05 04:10:43;;;;;;;4.90;2.10;;;;;;;;;;5012623;28;20045;-76
2023/03/05 04:13:08;;;;;;;4.93;2.30;;;;;;;;;;5027413;28;20042;-76
2023/03/05 04:15:34;;;;;;;4.95;2.50;;;;;;;;;;5012644;28;20033;-76
2023/03/05 04:17:59;;;;;;;4.82;2.28;;;;;;;;;;5002863;28;20046;-75
2023/03/05 04:20:25;;;;;;;4.05;1.95;;;;;;;;;;4998951;28;20046;-76
2023/03/05 04:22:50;;;;;;;4.40;1.88;;;;;;;;;;5009720;28;20038;-76
2023/03/05 04:25:16;;;;;;;3.45;2.00;;;;;;;;;;5012650;28;20041;-76
2023/03/05 04:27:42;;;;;;;3.75;1.92;;;;;;;;;;5010954;28;20092;-76
2023/03/05 04:30:10;;;;;;;4.80;2.10;;;;;;;;;;5006552;28;20042;-76
2023/03/05 04:32:35;;;;;;;7.10;2.15;;;;;;;;;;5012808;28;20042;-76
2023/03/05 04:35:01;;;;;;;7.70;2.40;;;;;;;;;;5014930;28;20041;-76
2023/03/05 04:37:26;;;;;;;4.55;1.85;;;;;;;;;;5004811;28;20036;-76
2023/03/05 04:39:52;;;;;;;5.35;1.80;;;;;;;;;;5005937;28;20088;-76
2023/03/05 04:42:18;;;;;;;4.40;1.88;;;;;;;;;;5014243;28;20383;-76
2023/03/05 04:44:45;;;;;;;5.57;2.42;;;;;;;;;;5012935;28;20038;-76
2023/03/05 04:47:11;;;;;;;5.90;2.20;;;;;;;;;;5015495;28;20076;-76
2023/03/05 04:49:36;;;;;;;9.93;2.20;;;;;;;;;;5016081;28;20065;-76
2023/03/05 04:52:02;;;;;;;4.78;2.10;;;;;;;;;;5001533;28;20498;-76
2023/03/05 04:54:27;;;;;;;6.05;2.17;;;;;;;;;;5009658;28;20046;-76
2023/03/05 04:56:53;;;;;;;7.60;2.45;;;;;;;;;;5015105;28;20065;-76
2023/03/05 04:59:18;;;;;;;6.75;2.08;;;;;;;;;;5016136;28;20033;-76
2023/03/05 05:01:43;;;;;;;6.22;2.47;;;;;;;;;;5013043;28;20048;-76
2023/03/05 05:04:09;;;;;;;6.82;2.53;;;;;;;;;;5014867;28;20045;-76
2023/03/05 05:06:34;;;;;;;6.68;2.30;;;;;;;;;;5010476;28;20033;-76
2023/03/05 05:09:00;;;;;;;3.60;2.20;;;;;;;;;;5011720;28;20046;-76
2023/03/05 05:11:25;;;;;;;5.60;1.92;;;;;;;;;;5010825;28;20062;-76
2023/03/05 05:13:51;;;;;;;7.95;2.40;;;;;;;;;;5030460;28;20045;-76
2023/03/05 05:16:16;;;;;;;6.65;2.20;;;;;;;;;;5009763;28;20054;-77
2023/03/05 05:18:42;;;;;;;5.63;2.15;;;;;;;;;;5009516;28;20092;-76
2023/03/05 05:21:09;;;;;;;6.30;2.50;;;;;;;;;;5014500;28;20113;-76
2023/03/05 05:23:35;;;;;;;5.60;2.42;;;;;;;;;;5028167;28;20536;-76
2023/03/05 05:26:03;;;;;;;7.78;2.40;;;;;;;;;;5013698;28;20034;-76
2023/03/05 05:28:29;;;;;;;4.97;2.13;;;;;;;;;;5014793;28;20068;-76
2023/03/05 05:30:54;;;;;;;7.57;2.28;;;;;;;;;;5013831;28;20096;-76
2023/03/05 05:33:20;;;;;;;4.70;2.45;;;;;;;;;;5015220;28;20034;-76
2023/03/05 05:35:46;;;;;;;7.13;2.42;;;;;;;;;;5003266;28;20026;-76
2023/03/05 05:38:11;;;;;;;6.22;2.30;;;;;;;;;;5030256;28;20040;-76
2023/03/05 05:40:37;;;;;;;8.73;2.33;;;;;;;;;;5014828;28;20532;-76
2023/03/05 05:43:02;;;;;;;4.70;2.20;;;;;;;;;;5013351;28;20500;-76
2023/03/05 05:45:28;;;;;;;5.00;2.10;;;;;;;;;;5029305;28;20030;-76
2023/03/05 05:47:53;;;;;;;4.07;2.15;;;;;;;;;;5014884;28;20533;-76
2023/03/05 05:50:19;;;;;;;4.57;2.20;;;;;;;;;;5014472;28;20470;-76
2023/03/05 05:52:45;;;;;;;3.72;1.80;;;;;;;;;;5001638;28;20065;-76
2023/03/05 05:55:11;;;;;;;7.78;2.28;;;;;;;;;;5013874;28;20107;-76
2023/03/05 05:57:37;;;;;;;6.57;2.50;;;;;;;;;;5012747;28;20040;-76
2023/03/05 06:00:05;;;;;;;7.22;2.88;;;;;;;;;;5029041;28;20034;-76
2023/03/05 06:02:31;;;;;;;7.30;2.67;;;;;;;;;;5013261;28;20048;-76
2023/03/05 06:04:56;;;;;;;5.00;2.28;;;;;;;;;;5014478;28;20034;-76
2023/03/05 06:07:22;;;;;;;4.63;2.15;;;;;;;;;;5010606;28;20116;-76
2023/03/05 06:09:47;;;;;;;5.10;2.35;;;;;;;;;;5026021;28;20172;-76
2023/03/05 06:12:13;;;;;;;3.35;1.83;;;;;;;;;;5014089;28;20053;-76
2023/03/05 06:14:38;;;;;;;4.72;2.20;;;;;;;;;;5014583;28;20038;-76
2023/03/05 06:17:04;;;;;;;4.90;2.50;;;;;;;;;;5013426;28;20072;-76
2023/03/05 06:19:29;;;;;;;5.50;2.08;;;;;;;;;;5004956;28;20038;-76
2023/03/05 06:21:55;;;;;;;9.23;2.70;;;;;;;;;;5012030;28;20074;-76
2023/03/05 06:24:21;;;;;;;6.38;2.72;;;;;;;;;;5013903;28;20057;-76
2023/03/05 06:26:47;;;;;;;9.00;2.10;;;;;;;;;;5025871;28;20060;-76
2023/03/05 06:29:13;;;;;;;3.83;2.13;;;;;;;;;;5008995;28;20038;-76
2023/03/05 06:31:39;;;;;;;4.88;2.00;;;;;;;;;;5010503;28;20092;-76
2023/03/05 06:34:05;;;;;;;8.43;2.40;;;;;;;;;;5013597;28;20038;-76
2023/03/05 06:36:30;;;;;;;5.20;2.08;;;;;;;;;;5009034;28;20042;-76
2023/03/05 06:38:56;;;;;;;7.70;2.67;;;;;;;;;;5008310;28;20046;-76
2023/03/05 06:41:25;;;;;;;6.63;2.30;;;;;;;;;;5005554;28;20037;-76
2023/03/05 06:43:51;;;;;;;7.25;2.80;;;;;;;;;;5009442;28;20045;-76
2023/03/05 06:46:19;;;;;;;5.55;2.05;;;;;;;;;;5012159;28;20497;-76
2023/03/05 06:48:45;;;;;;;4.53;2.05;;;;;;;;;;5005284;28;20429;-76
2023/03/05 06:51:13;;;;;;;5.00;2.50;;;;;;;;;;5005275;28;20109;-76
2023/03/05 06:53:39;;;;;;;4.72;2.05;;;;;;;;;;5005178;28;20137;-76
2023/03/05 06:56:04;;;;;;;9.55;2.10;;;;;;;;;;5004724;28;20105;-76
2023/03/05 06:58:30;;;;;;;5.75;2.08;;;;;;;;;;5012288;28;20092;-76
2023/03/05 07:00:55;;;;;;;5.47;2.03;;;;;;;;;;5004907;28;20087;-76
2023/03/05 07:03:20;;;;;;;4.85;1.98;;;;;;;;;;5013376;28;20041;-76
2023/03/05 07:05:46;;;;;;;5.88;1.83;;;;;;;;;;5013581;28;20033;-76
2023/03/05 07:08:13;;;;;;;3.83;2.10;;;;;;;;;;5013313;28;20056;-76
2023/03/05 07:10:40;;;;;;;4.78;2.00;;;;;;;;;;5013301;28;20030;-76
2023/03/05 07:13:06;;;;;;;3.35;2.05;;;;;;;;;;5011291;28;20508;-76
2023/03/05 07:15:32;;;;;;;4.40;2.42;;;;;;;;;;5028307;28;20056;-76
2023/03/05 07:17:57;;;;;;;3.42;1.80;;;;;;;;;;5010232;28;20034;-76
2023/03/05 07:20:23;;;;;;;4.97;2.25;;;;;;;;;;5003304;28;20072;-76
2023/03/05 07:22:48;;;;;;;4.43;2.22;;;;;;;;;;5006834;28;20049;-76
2023/03/05 07:25:18;;;;;;;5.60;2.45;;;;;;;;;;5007683;28;20029;-76
2023/03/05 07:27:43;;;;;;;6.88;2.40;;;;;;;;;;5013342;28;20464;-76
2023/03/05 07:30:09;;;;;;;8.40;2.03;;;;;;;;;;5012510;28;20130;-76
2023/03/05 07:32:35;;;;;;;3.95;1.67;;;;;;;;;;4995833;28;20034;-76
2023/03/05 07:35:00;;;;;;;5.45;2.40;;;;;;;;;;5010931;28;20038;-76
2023/03/05 07:37:25;;;;;;;5.57;2.67;;;;;;;;;;5008980;28;20053;-77
2023/03/05 07:39:51;;;;;;;4.40;2.30;;;;;;;;;;5004747;28;20029;-76
2023/03/05 07:42:16;;;;;;;4.63;2.28;;;;;;;;;;5012765;28;20192;-76
2023/03/05 07:44:42;;;;;;;4.30;2.22;;;;;;;;;;5012466;28;20040;-75
2023/03/05 07:47:07;;;;;;;5.75;2.85;;;;;;;;;;5012920;28;20053;-76
2023/03/05 07:49:34;;;;;;;11.70;3.63;;;;;;;;;;5002902;28;20042;-76
2023/03/05 07:51:59;;;;;;;13.45;3.60;;;;;;;;;;5009883;28;20046;-76
2023/03/05 07:54:24;;;;;;;7.65;3.03;;;;;;;;;;5028470;28;20042;-76
2023/03/05 07:56:50;;;;;;;9.60;3.35;;;;;;;;;;5013064;28;20034;-76
2023/03/05 07:59:15;;;;;;;9.00;4.35;;;;;;;;;;5009877;28;20038;-76
2023/03/05 08:01:41;;;;;;;14.73;5.10;;;;;;;;;;5004644;28;20049;-76
2023/03/05 08:04:07;;;;;;;15.10;4.78;;;;;;;;;;5012323;28;20054;-76
2023/03/05 08:06:32;;;;;;;9.80;3.85;;;;;;;;;;5022725;28;20043;-76
2023/03/05 08:08:58;;;;;;;8.95;2.92;;;;;;;;;;5009285;28;20026;-76
2023/03/05 08:11:24;;;;;;;7.20;2.75;;;;;;;;;;5016857;28;20042;-76
2023/03/05 08:13:50;;;;;;;3.90;2.40;;;;;;;;;;5013309;28;20073;-76
2023/03/05 08:16:20;;;;;;;5.15;2.20;;;;;;;;;;5014854;28;20060;-76
2023/03/05 08:18:46;;;;;;;7.13;2.55;;;;;;;;;;5007097;28;20046;-76
2023/03/05 08:21:17;;;;;;;7.38;2.85;;;;;;;;;;5028895;28;20046;-76
2023/03/05 08:23:42;;;;;;;7.53;2.88;;;;;;;;;;5006657;28;20529;-76
2023/03/05 08:26:13;;;;;;;4.72;2.67;;;;;;;;;;5012880;28;20117;-76
2023/03/05 08:28:39;;;;;;;5.82;2.75;;;;;;;;;;5015301;28;20042;-76
2023/03/05 08:31:08;;;;;;;10.82;3.50;;;;;;;;;;5016591;28;20488;-75
2023/03/05 08:33:34;;;;;;;7.10;3.00;;;;;;;;;;5007894;28;20054;-76
2023/03/05 08:35:59;;;;;;;7.68;3.17;;;;;;;;;;5015514;28;20022;-76
2023/03/05 08:38:25;;;;;;;7.93;2.80;;;;;;;;;;5016177;28;20033;-76
2023/03/05 08:40:51;;;;;;;10.23;3.30;;;;;;;;;;5014198;28;20489;-76
2023/03/05 08:43:16;;;;;;;26.98;6.53;;;;;;;;;;5016089;28;20037;-77
2023/03/05 08:45:42;;;;;;;20.05;6.72;;;;;;;;;;5013530;28;20030;-76
2023/03/05 08:48:07;;;;;;;9.07;3.85;;;;;;;;;;5000092;28;20144;-75
2023/03/05 08:50:35;;;;;;;6.85;2.55;;;;;;;;;;5003629;28;20585;-76
2023/03/05 08:53:01;;;;;;;8.43;3.50;;;;;;;;;;5009403;28;20058;-76
2023/03/05 08:55:26;;;;;;;11.73;5.47;;;;;;;;;;5015836;28;20470;-76
2023/03/05 08:57:52;;;;;;;7.97;4.07;;;;;;;;;;5016161;28;20033;-76
2023/03/05 09:00:18;;;;;;;7.32;3.75;;;;;;;;;;5014920;28;20048;-76
2023/03/05 09:02:43;;;;;;;7.32;3.13;;;;;;;;;;5013429;28;20037;-76
2023/03/05 09:05:09;;;;;;;6.38;2.72;;;;;;;;;;5012901;28;20394;-76
2023/03/05 09:07:36;;;;;;;6.72;3.08;;;;;;;;;;5011642;28;20034;-76
2023/03/05 09:10:03;;;;;;;6.35;3.00;;;;;;;;;;5015825;28;20129;-76
2023/03/05 09:12:29;;;;;;;8.30;3.55;;;;;;;;;;5014397;28;20056;-76
2023/03/05 09:14:55;;;;;;;7.15;2.95;;;;;;;;;;5007452;28;20030;-76
2023/03/05 09:17:21;;;;;;;5.47;3.10;;;;;;;;;;5010736;28;20051;-76
2023/03/05 09:19:46;;;;;;;5.47;2.78;;;;;;;;;;5012467;28;20057;-76
2023/03/05 09:22:11;;;;;;;8.10;3.00;;;;;;;;;;5014573;28;20026;-76
2023/03/05 09:24:37;;;;;;;6.70;3.03;;;;;;;;;;5011759;28;20121;-76
2023/03/05 09:27:03;;;;;;;5.93;2.50;;;;;;;;;;5015327;28;20025;-76
2023/03/05 09:29:30;;;;;;;6.65;2.72;;;;;;;;;;5011217;28;20478;-77
2023/03/05 09:31:55;;;;;;;6.03;2.80;;;;;;;;;;5015177;28;20045;-76
2023/03/05 09:34:21;;;;;;;7.90;2.83;;;;;;;;;;5007398;28;20367;-76
2023/03/05 09:36:47;;;;;;;5.93;2.72;;;;;;;;;;5010602;28;20035;-76
2023/03/05 09:39:12;;;;;;;7.78;2.72;;;;;;;;;;5010533;28;20040;-76
2023/03/05 09:42:15;;;;;;;8.10;2.63;;;;;;;;;;5014332;28;20136;-76
2023/03/05 09:44:46;;;;;;;4.03;2.33;;;;;;;;;;5013931;28;20084;-76
2023/03/05 09:47:26;;;;;;;4.68;2.08;;;;;;;;;;5012763;28;20080;-76
2023/03/05 09:50:03;;;;;;;7.00;2.42;;;;;;;;;;5012872;28;20046;-76
2023/03/05 09:52:56;;;;;;;6.32;2.67;;;;;;;;;;5010405;28;20081;-76
2023/03/05 09:55:31;;;;;;;6.57;2.55;;;;;;;;;;5013744;28;20068;-76
2023/03/05 09:58:03;;;;;;;5.57;2.22;;;;;;;;;;5029709;28;20033;-76
2023/03/05 10:00:31;;;;;;;4.28;2.35;;;;;;;;;;5029955;28;20514;-76
2023/03/05 10:03:00;;;;;;;7.50;2.97;;;;;;;;;;5013746;28;20461;-76
2023/03/05 10:05:42;;;;;;;7.97;2.08;;;;;;;;;;5013695;28;20087;-76
2023/03/05 10:08:10;;;;;;;5.00;1.92;;;;;;;;;;5007008;28;20359;-76
2023/03/05 10:10:49;;;;;;;5.00;2.13;;;;;;;;;;5006402;28;20398;-76
2023/03/05 10:13:44;;;;;;;6.80;2.42;;;;;;;;;;5013442;28;20038;-76
2023/03/05 10:16:31;;;;;;;5.63;2.30;;;;;;;;;;5005457;28;20050;-76
2023/03/05 10:19:05;;;;;;;7.43;2.50;;;;;;;;;;5000962;28;20084;-76
2023/03/05 10:21:53;;;;;;;4.93;2.17;;;;;;;;;;5029866;28;20064;-76
2023/03/05 10:24:52;;;;;;;4.30;2.10;;;;;;;;;;5029642;28;20038;-76
2023/03/05 10:27:34;;;;;;;4.30;2.15;;;;;;;;;;4992008;28;20513;-76
2023/03/05 10:30:03;;;;;;;4.45;2.00;;;;;;;;;;5002232;28;20121;-76
2023/03/05 10:32:40;;;;;;;3.67;1.90;;;;;;;;;;5013969;28;20124;-76
2023/03/05 10:35:19;;;;;;;4.75;2.30;;;;;;;;;;5003477;28;20473;-76
2023/03/05 10:38:03;;;;;;;7.45;2.40;;;;;;;;;;5013096;28;20050;-76
2023/03/05 10:40:41;;;;;;;6.70;2.72;;;;;;;;;;5014273;28;20092;-76
2023/03/05 10:43:15;;;;;;;5.75;2.47;;;;;;;;;;5012460;28;20045;-76
2023/03/05 10:45:46;;;;;;;7.18;2.17;;;;;;;;;;5001528;28;20045;-76
2023/03/05 10:48:18;;;;;;;5.18;2.03;;;;;;;;;;5008429;28;20054;-76
2023/03/05 10:50:51;;;;;;;4.80;2.35;;;;;;;;;;5023228;28;20041;-76
2023/03/05 10:53:33;;;;;;;3.88;1.90;;;;;;;;;;5029088;28;20133;-76
2023/03/05 10:56:04;;;;;;;4.32;1.92;;;;;;;;;;5002347;28;20080;-76
2023/03/05 10:58:29;;;;;;;5.40;1.95;;;;;;;;;;5012668;28;20061;-75
2023/03/05 11:01:04;;;;;;;6.13;1.98;;;;;;;;;;5004686;28;20441;-76
2023/03/05 11:03:47;;;;;;;5.05;2.47;;;;;;;;;;5002797;28;20035;-76
2023/03/05 11:06:13;;;;;;;5.68;1.75;;;;;;;;;;5000374;28;20040;-76
2023/03/05 11:08:39;;;;;;;5.35;2.13;;;;;;;;;;5010030;28;20132;-76
2023/03/05 11:11:04;;;;;;;4.18;2.25;;;;;;;;;;5004194;28;20069;-76
2023/03/05 11:13:31;;;;;;;4.18;1.75;;;;;;;;;;4998379;28;20439;-76
2023/03/05 11:16:05;;;;;;;4.05;2.03;;;;;;;;;;5007376;28;20117;-76
2023/03/05 11:18:33;;;;;;;3.47;1.70;;;;;;;;;;5012539;28;20117;-76
2023/03/05 11:21:26;;;;;;;8.13;4.00;;;;;;;;;;5022174;28;20406;-76
2023/03/05 11:24:04;;;;;;;7.50;3.45;;;;;;;;;;5012316;28;20079;-76
2023/03/05 11:26:30;;;;;;;6.82;2.75;;;;;;;;;;5013562;28;20100;-76
2023/03/05 11:28:58;;;;;;;5.53;2.33;;;;;;;;;;5012310;28;20413;-76
2023/03/05 11:31:27;;;;;;;6.97;2.80;;;;;;;;;;5003565;28;20037;-76
2023/03/05 11:34:22;;;;;;;4.78;2.15;;;;;;;;;;5010403;28;20040;-76
2023/03/05 11:36:51;;;;;;;4.70;2.10;;;;;;;;;;5010192;28;20117;-76
2023/03/05 11:39:21;;;;;;;4.13;2.08;;;;;;;;;;5002485;28;20065;-76
2023/03/05 11:42:03;;;;;;;6.65;2.13;;;;;;;;;;5006564;28;20042;-76
2023/03/05 11:44:44;;;;;;;6.85;2.50;;;;;;;;;;5013719;28;20121;-76
2023/03/05 11:47:36;;;;;;;5.07;1.98;;;;;;;;;;5006154;28;20050;-76
2023/03/05 11:50:18;;;;;;;7.63;2.20;;;;;;;;;;5015995;28;20057;-76
2023/03/05 11:52:58;;;;;;;7.28;2.55;;;;;;;;;;5015752;28;20066;-76
2023/03/05 11:55:43;;;;;;;9.45;2.08;;;;;;;;;;5015977;28;20038;-76
2023/03/05 11:58:24;;;;;;;6.07;2.60;;;;;;;;;;5017234;28;20042;-76
2023/03/05 12:00:49;;;;;;;8.05;2.97;;;;;;;;;;5016530;28;20029;-76
2023/03/05 12:03:22;;;;;;;8.30;2.75;;;;;;;;;;5005490;28;20507;-76
2023/03/05 12:05:55;;;;;;;4.82;2.65;;;;;;;;;;5008524;28;20026;-76
2023/03/05 12:08:26;;;;;;;5.93;2.30;;;;;;;;;;5015550;28;20061;-76
2023/03/05 12:10:52;;;;;;;3.35;1.85;;;;;;;;;;5031956;28;20061;-77
2023/03/05 12:13:28;;;;;;;4.63;2.55;;;;;;;;;;5017090;28;20049;-76
2023/03/05 12:16:05;;;;;;;3.58;2.13;;;;;;;;;;5022610;28;20038;-76
2023/03/05 12:18:48;;;;;;;6.05;2.42;;;;;;;;;;5016825;28;20104;-76
2023/03/05 12:21:17;;;;;;;6.00;2.78;;;;;;;;;;5016404;28;20489;-76
2023/03/05 12:23:57;;;;;;;10.40;2.78;;;;;;;;;;5015592;28;20057;-76
2023/03/05 12:26:57;;;;;;;7.13;2.90;;;;;;;;;;5031707;28;20440;-76
2023/03/05 12:29:44;;;;;;;5.35;2.22;;;;;;;;;;5008505;28;20026;-76
2023/03/05 12:32:21;;;;;;;4.40;2.38;;;;;;;;;;5014993;28;20491;-77
2023/03/05 12:34:49;;;;;;;7.35;3.08;;;;;;;;;;5016482;28;20026;-76
2023/03/05 12:37:20;;;;;;;4.90;2.33;;;;;;;;;;5000079;28;20061;-76
2023/03/05 12:39:48;;;;;;;6.45;2.60;;;;;;;;;;5000139;28;20034;-75
2023/03/05 12:42:29;;;;;;;5.65;2.47;;;;;;;;;;5011344;28;20045;-76
2023/03/05 12:45:15;;;;;;;5.15;2.67;;;;;;;;;;5004044;28;20052;-76
2023/03/05 12:48:11;;;;;;;8.73;3.30;;;;;;;;;;5014821;28;20022;-76
2023/03/05 12:50:36;;;;;;;8.50;2.97;;;;;;;;;;5011727;28;20096;-76
2023/03/05 12:53:17;;;;;;;5.22;3.17;;;;;;;;;;5009062;28;20057;-76
2023/03/05 12:55:48;;;;;;;5.88;2.75;;;;;;;;;;5007986;28;20092;-76
2023/03/05 12:58:37;;;;;;;7.68;3.13;;;;;;;;;;5013409;28;20044;-76
2023/03/05 13:01:33;;;;;;;6.00;2.67;;;;;;;;;;5021019;28;20073;-76
2023/03/05 13:04:05;;;;;;;7.72;3.03;;;;;;;;;;5000674;28;20029;-76
2023/03/05 13:06:33;;;;;;;5.55;2.50;;;;;;;;;;5029737;28;20044;-76
2023/03/05 13:09:23;;;;;;;5.93;3.00;;;;;;;;;;5006901;28;20450;-76
2023/03/05 13:11:50;;;;;;;6.60;2.88;;;;;;;;;;5011965;28;20050;-76
2023/03/05 13:14:46;;;;;;;8.35;3.10;;;;;;;;;;5012019;28;20117;-76
2023/03/05 13:17:39;;;;;;;6.10;3.20;;;;;;;;;;5009977;28;20120;-77
2023/03/05 13:20:23;;;;;;;7.72;3.25;;;;;;;;;;5010273;28;20034;-76
2023/03/05 13:23:11;;;;;;;8.23;3.30;;;;;;;;;;5014909;28;20033;-76
2023/03/05 13:25:37;;;;;;;7.03;3.00;;;;;;;;;;5025386;28;20021;-76
2023/03/05 13:28:04;;;;;;;7.30;3.00;;;;;;;;;;5009953;28;20371;-76
2023/03/05 13:30:29;;;;;;;7.95;4.45;;;;;;;;;;5005833;28;20033;-77
2023/03/05 13:33:03;;;;;;;10.07;3.28;;;;;;;;;;5010867;28;20038;-76
2023/03/05 13:35:33;;;;;;;5.55;2.75;;;;;;;;;;5000066;28;20072;-77
2023/03/05 13:37:58;;;;;;;4.82;2.53;;;;;;;;;;4992529;28;20046;-77
2023/03/05 13:40:26;;;;;;;5.60;2.92;;;;;;;;;;5015590;28;20080;-77
2023/03/05 13:42:52;;;;;;;6.28;3.20;;;;;;;;;;5024052;28;20367;-77
2023/03/05 13:45:29;;;;;;;6.40;2.78;;;;;;;;;;5002036;28;20053;-77
2023/03/05 13:47:59;;;;;;;6.65;3.20;;;;;;;;;;5003572;28;20045;-77
2023/03/05 13:50:31;;;;;;;5.65;3.00;;;;;;;;;;5004566;28;20438;-77
2023/03/05 13:53:36;;;;;;;5.05;2.45;;;;;;;;;;5019425;28;20184;-77
2023/03/05 13:56:06;;;;;;;7.68;3.33;;;;;;;;;;5005336;28;20057;-77
2023/03/05 13:58:51;;;;;;;6.88;2.88;;;;;;;;;;5007305;28;20055;-77
2023/03/05 14:01:27;;;;;;;7.53;2.75;;;;;;;;;;5006114;28;20042;-76
2023/03/05 14:03:57;;;;;;;7.70;3.28;;;;;;;;;;5008652;28;20131;-76
2023/03/05 14:06:24;;;;;;;9.18;2.65;;;;;;;;;;5005349;28;20556;-77
2023/03/05 14:08:51;;;;;;;5.50;2.38;;;;;;;;;;5005980;28;20034;-76
2023/03/05 14:11:17;;;;;;;6.40;2.60;;;;;;;;;;5007792;28;20049;-77
2023/03/05 14:13:43;;;;;;;6.88;2.80;;;;;;;;;;5007945;28;20038;-76
2023/03/05 14:16:23;;;;;;;7.32;2.72;;;;;;;;;;5007905;28;20049;-76
2023/03/05 14:18:57;;;;;;;8.30;2.63;;;;;;;;;;5024902;28;20382;-76
2023/03/05 14:21:24;;;;;;;6.38;2.97;;;;;;;;;;5006256;28;20035;-76
2023/03/05 14:23:51;;;;;;;4.55;3.00;;;;;;;;;;5004992;28;20041;-76
2023/03/05 14:26:31;;;;;;;8.95;2.88;;;;;;;;;;5009432;28;20561;-76
2023/03/05 14:29:02;;;;;;;8.77;3.13;;;;;;;;;;5004706;28;20076;-76
2023/03/05 14:31:29;;;;;;;7.47;3.13;;;;;;;;;;5008433;28;20062;-77
2023/03/05 14:34:03;;;;;;;8.18;3.05;;;;;;;;;;5005978;28;20445;-77
2023/03/05 14:36:29;;;;;;;8.77;3.10;;;;;;;;;;5002848;28;20034;-77
2023/03/05 14:38:55;;;;;;;5.05;2.90;;;;;;;;;;5026973;28;20037;-77
2023/03/05 14:41:37;;;;;;;5.80;2.40;;;;;;;;;;5012431;28;20371;-77
2023/03/05 14:44:11;;;;;;;4.45;2.90;;;;;;;;;;5008220;28;20030;-77
2023/03/05 14:46:37;;;;;;;8.05;3.22;;;;;;;;;;5008210;28;20052;-77
2023/03/05 14:49:02;;;;;;;12.13;3.25;;;;;;;;;;5011300;28;20419;-77
2023/03/05 14:51:28;;;;;;;9.60;3.50;;;;;;;;;;5011770;28;20033;-77
2023/03/05 14:53:53;;;;;;;6.35;2.30;;;;;;;;;;5012278;28;20054;-77
2023/03/05 14:56:27;;;;;;;6.20;2.47;;;;;;;;;;5006478;28;20038;-77